Time;durP1;ratioP1;P1;durP2;ratioP2;P2;SDS_P1;SDS_P2;PMS_P1;PMS_P2;Temp;Humidity;BMP_temperature;BMP_pressure;BME280_temperature;BME280_humidity;BME280_pressure;Samples;Min_cycle;Max_cycle;Signal;HPM_P1;HPM_P2
2022/06/27 00:00:20;;;;;;;0.73;0.70;;;;;;;;;;5013683;28;89074;-68
2022/06/27 00:03:14;;;;;;;0.67;0.67;;;;;;;;;;5000503;28;88457;-68
2022/06/27 00:08:49;;;;;;;0.93;0.67;;;;;;;;;;5061191;27;88421;-70
2022/06/27 00:11:25;;;;;;;0.77;0.60;;;;;;;;;;5057668;27;88517;-69
2022/06/27 00:16:41;;;;;;;1.30;0.70;;;;;;;;;;5057890;27;90529;-69
2022/06/27 00:22:13;;;;;;;5.63;0.90;;;;;;;;;;5037523;27;88540;-69
2022/06/27 00:25:06;;;;;;;1.63;0.50;;;;;;;;;;5045899;27;88824;-69
2022/06/27 00:27:43;;;;;;;0.63;0.60;;;;;;;;;;5057570;27;88499;-68
2022/06/27 00:33:18;;;;;;;1.47;0.87;;;;;;;;;;5057692;27;88362;-69
2022/06/27 00:35:50;;;;;;;0.70;0.70;;;;;;;;;;5058380;27;88570;-69
2022/06/27 00:38:20;;;;;;;1.03;0.70;;;;;;;;;;5040303;27;89667;-69
2022/06/27 00:41:04;;;;;;;1.50;0.50;;;;;;;;;;5038027;28;90969;-69
2022/06/27 00:43:52;;;;;;;0.80;0.80;;;;;;;;;;5038153;27;88425;-70
2022/06/27 00:46:43;;;;;;;1.00;0.87;;;;;;;;;;5038508;27;89926;-70
2022/06/27 00:49:23;;;;;;;0.90;0.77;;;;;;;;;;5036271;27;90898;-68
2022/06/27 00:52:02;;;;;;;1.00;0.70;;;;;;;;;;5038091;27;88584;-69
2022/06/27 01:00:17;;;;;;;0.70;0.70;;;;;;;;;;5036053;27;90017;-70
2022/06/27 01:02:53;;;;;;;0.57;0.57;;;;;;;;;;5037104;27;89067;-69
2022/06/27 01:05:24;;;;;;;2.30;0.67;;;;;;;;;;5036197;28;88329;-68
2022/06/27 01:07:56;;;;;;;0.63;0.63;;;;;;;;;;5036026;27;88382;-68
2022/06/27 01:10:50;;;;;;;1.40;0.40;;;;;;;;;;5037803;27;89120;-68
2022/06/27 01:13:34;;;;;;;0.60;0.60;;;;;;;;;;5036885;27;90642;-69
2022/06/27 01:16:08;;;;;;;1.83;1.53;;;;;;;;;;5037352;28;88438;-69
2022/06/27 01:21:41;;;;;;;1.27;0.83;;;;;;;;;;5040692;28;92941;-68
2022/06/27 01:24:48;;;;;;;1.83;1.20;;;;;;;;;;5038638;28;88547;-69
2022/06/27 01:27:26;;;;;;;1.17;1.03;;;;;;;;;;5027609;28;88414;-69
2022/06/27 01:33:21;;;;;;;4.27;1.93;;;;;;;;;;5019409;28;89217;-68
2022/06/27 01:39:15;;;;;;;1.93;1.33;;;;;;;;;;5021974;28;88311;-69
2022/06/27 01:41:55;;;;;;;2.60;1.50;;;;;;;;;;5022199;28;88697;-70
2022/06/27 01:44:26;;;;;;;3.03;2.00;;;;;;;;;;5023801;28;90587;-69
2022/06/27 01:47:10;;;;;;;2.27;1.70;;;;;;;;;;5023559;28;91643;-69
2022/06/27 01:49:39;;;;;;;2.93;1.70;;;;;;;;;;5023426;28;88424;-68
2022/06/27 01:52:11;;;;;;;1.67;1.50;;;;;;;;;;5021413;28;88810;-69
2022/06/27 01:54:40;;;;;;;2.53;1.80;;;;;;;;;;5023444;28;89815;-69
2022/06/27 01:57:24;;;;;;;4.63;1.70;;;;;;;;;;5035565;28;88965;-68
2022/06/27 02:00:14;;;;;;;2.40;1.80;;;;;;;;;;5041782;28;88425;-70
2022/06/27 02:02:58;;;;;;;2.97;1.73;;;;;;;;;;5043435;27;88354;-70
2022/06/27 02:05:45;;;;;;;2.90;1.73;;;;;;;;;;5036772;28;89372;-69
2022/06/27 02:08:16;;;;;;;3.93;2.20;;;;;;;;;;5023201;28;88903;-69
2022/06/27 02:10:59;;;;;;;4.87;1.93;;;;;;;;;;5023279;28;88356;-69
2022/06/27 02:13:32;;;;;;;3.33;2.37;;;;;;;;;;5022673;28;88764;-69
2022/06/27 02:16:07;;;;;;;2.93;2.10;;;;;;;;;;5024840;28;90560;-68
2022/06/27 02:18:43;;;;;;;2.63;1.93;;;;;;;;;;5022120;28;88884;-68
2022/06/27 02:24:11;;;;;;;2.73;1.90;;;;;;;;;;5021583;28;88373;-68
2022/06/27 02:26:45;;;;;;;3.00;2.10;;;;;;;;;;5034731;27;89836;-68
2022/06/27 02:32:00;;;;;;;3.13;2.50;;;;;;;;;;5043327;28;88582;-69
2022/06/27 02:34:33;;;;;;;4.23;2.37;;;;;;;;;;5043489;27;88640;-69
2022/06/27 02:39:49;;;;;;;3.93;2.63;;;;;;;;;;5023736;28;89904;-68
2022/06/27 02:42:19;;;;;;;3.23;2.33;;;;;;;;;;5043533;27;89628;-71
2022/06/27 02:47:33;;;;;;;5.53;2.40;;;;;;;;;;5040055;28;90311;-68
2022/06/27 02:52:58;;;;;;;3.47;2.27;;;;;;;;;;5022438;28;88476;-68
2022/06/27 02:55:37;;;;;;;2.83;1.87;;;;;;;;;;5023168;28;88590;-68
2022/06/27 02:58:12;;;;;;;3.23;2.87;;;;;;;;;;5021387;28;88512;-69
2022/06/27 03:00:58;;;;;;;3.20;2.30;;;;;;;;;;5024099;28;88984;-70
2022/06/27 03:03:35;;;;;;;7.07;4.90;;;;;;;;;;5021361;28;88472;-68
2022/06/27 03:06:08;;;;;;;4.70;2.80;;;;;;;;;;5032044;28;88616;-70
2022/06/27 03:08:47;;;;;;;4.70;2.70;;;;;;;;;;5040655;27;89328;-69
2022/06/27 03:11:25;;;;;;;4.47;2.50;;;;;;;;;;5040642;27;89128;-68
2022/06/27 03:13:55;;;;;;;4.67;2.90;;;;;;;;;;5041373;28;88574;-68
2022/06/27 03:16:59;;;;;;;3.73;3.03;;;;;;;;;;5027459;27;88760;-68
2022/06/27 03:19:37;;;;;;;4.63;3.20;;;;;;;;;;5040677;28;90214;-69
2022/06/27 03:25:21;;;;;;;4.20;2.73;;;;;;;;;;5042207;28;88441;-68
2022/06/27 03:28:05;;;;;;;5.03;2.97;;;;;;;;;;5022175;28;88730;-69
2022/06/27 03:30:36;;;;;;;4.53;3.07;;;;;;;;;;5022441;28;89190;-69
2022/06/27 03:33:09;;;;;;;4.57;2.43;;;;;;;;;;5022099;28;89524;-69
2022/06/27 03:35:57;;;;;;;3.27;2.63;;;;;;;;;;5022111;28;88656;-70
2022/06/27 03:38:36;;;;;;;4.20;2.90;;;;;;;;;;5021792;28;88428;-69
2022/06/27 03:41:06;;;;;;;3.47;2.67;;;;;;;;;;5021279;28;94174;-69
2022/06/27 03:43:39;;;;;;;4.03;2.90;;;;;;;;;;5020050;28;88924;-69
2022/06/27 03:46:10;;;;;;;3.50;2.50;;;;;;;;;;5021580;28;88492;-69
2022/06/27 03:52:03;;;;;;;4.47;2.30;;;;;;;;;;5021333;28;89783;-69
2022/06/27 03:54:47;;;;;;;3.13;2.17;;;;;;;;;;5020774;28;88663;-70
2022/06/27 04:06:11;;;;;;;6.83;2.80;;;;;;;;;;5021415;28;92044;-68
2022/06/27 04:12:40;;;;;;;3.13;2.70;;;;;;;;;;5017721;28;88624;-77
2022/06/27 04:15:38;;;;;;;5.07;2.73;;;;;;;;;;5011017;28;89488;-76
2022/06/27 04:18:26;;;;;;;3.00;2.40;;;;;;;;;;4959035;28;88980;-77
2022/06/27 04:21:09;;;;;;;3.73;2.53;;;;;;;;;;4954438;28;88527;-77
2022/06/27 04:29:31;;;;;;;3.80;2.30;;;;;;;;;;4960084;28;89071;-76
2022/06/27 04:38:03;;;;;;;2.77;1.70;;;;;;;;;;4959921;28;89147;-77
2022/06/27 04:40:46;;;;;;;2.80;2.37;;;;;;;;;;4959650;28;89353;-77
2022/06/27 04:43:40;;;;;;;4.37;2.50;;;;;;;;;;4958572;28;88631;-77
2022/06/27 04:46:13;;;;;;;2.83;2.20;;;;;;;;;;4943277;28;88634;-77
2022/06/27 04:48:56;;;;;;;3.63;2.27;;;;;;;;;;4953190;28;90782;-77
2022/06/27 04:51:40;;;;;;;2.87;1.97;;;;;;;;;;5017022;28;89294;-69
2022/06/27 04:54:14;;;;;;;2.40;2.10;;;;;;;;;;5034288;28;88465;-68
2022/06/27 04:57:03;;;;;;;6.40;1.90;;;;;;;;;;4973153;28;89122;-76
2022/06/27 05:03:00;;;;;;;3.87;1.87;;;;;;;;;;4936612;28;89312;-76
2022/06/27 05:05:32;;;;;;;2.37;1.87;;;;;;;;;;4941665;28;88411;-76
2022/06/27 05:08:04;;;;;;;3.37;2.00;;;;;;;;;;4940631;28;88770;-76
2022/06/27 05:10:40;;;;;;;3.70;2.03;;;;;;;;;;4926381;28;91656;-77
2022/06/27 05:13:11;;;;;;;2.87;1.73;;;;;;;;;;4936102;28;88518;-77
2022/06/27 05:15:51;;;;;;;2.80;1.93;;;;;;;;;;4923288;28;88592;-77
2022/06/27 05:18:32;;;;;;;3.10;2.07;;;;;;;;;;4923120;28;88637;-78
2022/06/27 05:21:30;;;;;;;2.70;1.57;;;;;;;;;;4923144;28;88969;-77
2022/06/27 05:24:06;;;;;;;3.30;1.87;;;;;;;;;;4935205;28;90087;-77
2022/06/27 05:26:36;;;;;;;2.40;1.70;;;;;;;;;;4958455;28;88559;-77
2022/06/27 05:29:11;;;;;;;2.20;1.70;;;;;;;;;;4963075;28;88493;-77
2022/06/27 05:31:57;;;;;;;2.00;1.50;;;;;;;;;;5017383;28;89230;-77
2022/06/27 05:34:30;;;;;;;2.50;1.50;;;;;;;;;;5032011;28;89095;-77
2022/06/27 05:37:04;;;;;;;1.53;1.40;;;;;;;;;;5023668;28;88325;-77
2022/06/27 05:39:34;;;;;;;1.50;1.40;;;;;;;;;;5023462;28;88624;-77
2022/06/27 05:42:05;;;;;;;2.13;1.10;;;;;;;;;;5023062;28;89804;-77
2022/06/27 05:44:42;;;;;;;1.80;1.60;;;;;;;;;;5039222;28;91353;-77
2022/06/27 05:47:11;;;;;;;2.17;1.40;;;;;;;;;;5024339;27;88480;-79
2022/06/27 05:49:46;;;;;;;2.43;1.60;;;;;;;;;;5021921;28;88643;-77
2022/06/27 05:52:18;;;;;;;3.40;1.60;;;;;;;;;;5026524;27;88521;-78
2022/06/27 05:55:11;;;;;;;2.87;1.63;;;;;;;;;;5061490;27;89318;-78
2022/06/27 05:58:19;;;;;;;3.23;1.73;;;;;;;;;;5022997;27;88470;-77
2022/06/27 06:00:52;;;;;;;1.80;1.60;;;;;;;;;;5023500;28;88327;-78
2022/06/27 06:03:23;;;;;;;2.57;1.27;;;;;;;;;;5021324;28;89785;-78
2022/06/27 06:05:52;;;;;;;3.53;1.43;;;;;;;;;;5023620;28;90174;-79
2022/06/27 06:08:26;;;;;;;1.20;1.10;;;;;;;;;;5022762;28;88513;-77
2022/06/27 06:11:02;;;;;;;1.50;1.40;;;;;;;;;;5024079;28;88306;-77
2022/06/27 06:13:48;;;;;;;2.73;1.70;;;;;;;;;;5023377;28;92154;-78
2022/06/27 06:16:25;;;;;;;3.73;1.57;;;;;;;;;;5022926;28;91856;-78
2022/06/27 06:19:13;;;;;;;2.83;1.20;;;;;;;;;;5022946;28;88318;-78
2022/06/27 06:24:52;;;;;;;3.27;1.20;;;;;;;;;;5034086;28;93368;-78
2022/06/27 06:27:27;;;;;;;2.43;1.40;;;;;;;;;;5042184;27;89503;-76
2022/06/27 06:29:59;;;;;;;2.00;1.30;;;;;;;;;;5040419;27;88509;-76
2022/06/27 06:32:28;;;;;;;3.23;1.40;;;;;;;;;;5041095;28;88740;-77
2022/06/27 06:34:58;;;;;;;1.27;1.17;;;;;;;;;;5043428;28;93980;-77
2022/06/27 06:37:31;;;;;;;4.70;1.60;;;;;;;;;;5042656;27;89461;-76
2022/06/27 06:46:28;;;;;;;4.93;1.73;;;;;;;;;;4980528;28;90959;-76
2022/06/27 06:49:05;;;;;;;1.80;1.40;;;;;;;;;;4962366;28;90744;-75
2022/06/27 06:51:42;;;;;;;1.70;1.57;;;;;;;;;;4975943;28;89103;-75
2022/06/27 06:59:52;;;;;;;3.00;1.70;;;;;;;;;;4986014;28;89637;-75
2022/06/27 07:05:17;;;;;;;2.97;1.47;;;;;;;;;;4974883;28;88707;-77
2022/06/27 07:07:51;;;;;;;2.63;1.47;;;;;;;;;;4960058;28;92553;-76
2022/06/27 07:10:28;;;;;;;2.47;1.40;;;;;;;;;;4960655;28;89453;-76
2022/06/27 07:13:00;;;;;;;1.47;1.23;;;;;;;;;;4963627;28;88808;-76
2022/06/27 07:15:35;;;;;;;2.90;1.10;;;;;;;;;;4968449;28;88770;-76
2022/06/27 07:18:14;;;;;;;2.47;1.40;;;;;;;;;;4999808;28;88557;-77
2022/06/27 07:20:47;;;;;;;5.00;1.87;;;;;;;;;;5021603;28;90411;-72
2022/06/27 07:23:17;;;;;;;3.03;1.40;;;;;;;;;;5022324;28;88407;-76
2022/06/27 07:25:50;;;;;;;1.10;1.00;;;;;;;;;;5025327;28;88619;-77
2022/06/27 07:28:26;;;;;;;7.10;2.00;;;;;;;;;;5023786;28;90897;-77
2022/06/27 07:31:08;;;;;;;2.93;1.60;;;;;;;;;;5035717;28;89885;-74
2022/06/27 07:33:46;;;;;;;1.83;1.30;;;;;;;;;;5041284;27;88327;-75
2022/06/27 07:36:17;;;;;;;2.90;1.30;;;;;;;;;;5019418;28;88627;-75
2022/06/27 07:38:47;;;;;;;4.73;1.37;;;;;;;;;;5019365;28;88552;-74
2022/06/27 07:41:16;;;;;;;2.17;1.10;;;;;;;;;;5020668;28;90020;-75
2022/06/27 07:43:46;;;;;;;3.83;1.10;;;;;;;;;;5021263;28;88448;-75
2022/06/27 07:46:17;;;;;;;2.00;1.37;;;;;;;;;;5021720;28;88444;-75
2022/06/27 07:48:47;;;;;;;1.40;1.30;;;;;;;;;;5021241;28;90101;-75
2022/06/27 07:54:07;;;;;;;2.00;1.13;;;;;;;;;;5021045;28;88247;-75
2022/06/27 07:56:36;;;;;;;1.97;1.20;;;;;;;;;;5001938;28;88497;-75
2022/06/27 07:59:28;;;;;;;1.87;1.10;;;;;;;;;;5021128;27;92387;-74
2022/06/27 08:02:02;;;;;;;1.17;0.90;;;;;;;;;;5021022;28;89033;-75
2022/06/27 08:04:36;;;;;;;1.23;1.13;;;;;;;;;;5021272;28;88358;-75
2022/06/27 08:07:06;;;;;;;3.83;1.27;;;;;;;;;;5020902;28;88449;-75
2022/06/27 08:09:38;;;;;;;2.70;1.00;;;;;;;;;;5020856;28;88440;-76
2022/06/27 08:12:07;;;;;;;2.10;1.10;;;;;;;;;;5020740;28;89883;-74
2022/06/27 08:14:36;;;;;;;2.93;1.37;;;;;;;;;;5021622;28;88314;-75
2022/06/27 08:17:11;;;;;;;7.10;1.67;;;;;;;;;;5020827;28;88413;-76
2022/06/27 08:19:41;;;;;;;6.10;2.07;;;;;;;;;;5019305;28;90715;-76
2022/06/27 08:22:33;;;;;;;9.83;1.70;;;;;;;;;;5020594;28;89929;-76
2022/06/27 08:25:15;;;;;;;3.40;1.20;;;;;;;;;;5020760;28;88398;-75
2022/06/27 08:27:48;;;;;;;3.93;1.40;;;;;;;;;;5020453;28;88612;-75
2022/06/27 08:30:33;;;;;;;1.23;0.90;;;;;;;;;;5022662;28;89308;-75
2022/06/27 08:33:18;;;;;;;2.67;1.10;;;;;;;;;;5023997;28;88943;-75
2022/06/27 08:35:53;;;;;;;1.47;1.03;;;;;;;;;;5024309;28;88433;-75
2022/06/27 08:38:32;;;;;;;4.83;1.87;;;;;;;;;;5024533;28;88347;-75
2022/06/27 08:41:04;;;;;;;2.33;1.33;;;;;;;;;;5024617;28;90551;-75
2022/06/27 08:43:43;;;;;;;1.53;1.20;;;;;;;;;;5023782;28;88871;-75
2022/06/27 08:46:28;;;;;;;2.07;1.00;;;;;;;;;;5024177;28;88208;-75
2022/06/27 08:49:00;;;;;;;1.47;0.90;;;;;;;;;;5024130;28;88636;-75
2022/06/27 08:51:31;;;;;;;7.17;1.30;;;;;;;;;;5022965;28;92218;-75
2022/06/27 08:54:04;;;;;;;2.63;1.20;;;;;;;;;;5023381;28;88969;-75
2022/06/27 08:56:34;;;;;;;4.63;1.57;;;;;;;;;;5025488;28;88334;-75
2022/06/27 08:59:03;;;;;;;3.83;2.03;;;;;;;;;;5025158;28;88370;-75
2022/06/27 09:01:32;;;;;;;1.47;1.03;;;;;;;;;;5023951;28;89318;-76
2022/06/27 09:04:03;;;;;;;1.73;1.13;;;;;;;;;;5023979;28;88796;-74
2022/06/27 09:06:38;;;;;;;2.33;1.20;;;;;;;;;;5024617;28;88404;-75
2022/06/27 09:09:08;;;;;;;6.63;1.27;;;;;;;;;;5024243;28;88576;-76
2022/06/27 09:11:46;;;;;;;1.30;1.20;;;;;;;;;;5022884;28;89593;-76
2022/06/27 09:14:32;;;;;;;3.00;1.23;;;;;;;;;;5023477;28;90455;-75
2022/06/27 09:17:09;;;;;;;1.93;1.27;;;;;;;;;;5024461;28;88269;-75
2022/06/27 09:19:48;;;;;;;1.23;1.07;;;;;;;;;;5024061;28;88456;-75
2022/06/27 09:22:23;;;;;;;1.63;1.10;;;;;;;;;;5023690;28;92301;-75
2022/06/27 09:25:00;;;;;;;6.97;1.00;;;;;;;;;;5023712;28;92099;-75
2022/06/27 09:27:38;;;;;;;3.17;1.20;;;;;;;;;;5023024;28;88263;-75
2022/06/27 09:30:21;;;;;;;1.80;0.97;;;;;;;;;;5023654;28;88363;-75
2022/06/27 09:32:51;;;;;;;3.30;1.13;;;;;;;;;;5022908;28;89933;-75
2022/06/27 09:35:25;;;;;;;0.87;0.77;;;;;;;;;;5023082;28;89696;-75
2022/06/27 09:37:55;;;;;;;5.40;1.10;;;;;;;;;;5023412;28;88397;-74
2022/06/27 09:40:26;;;;;;;1.60;0.83;;;;;;;;;;5022717;28;88582;-75
2022/06/27 09:42:59;;;;;;;3.03;1.20;;;;;;;;;;5022756;28;90860;-74
2022/06/27 09:45:28;;;;;;;2.23;0.70;;;;;;;;;;5023101;28;88915;-75
2022/06/27 09:47:59;;;;;;;2.63;1.30;;;;;;;;;;5022864;28;88286;-75
2022/06/27 09:50:37;;;;;;;1.67;1.00;;;;;;;;;;5021612;28;88498;-75
2022/06/27 09:53:06;;;;;;;1.23;0.80;;;;;;;;;;5023049;28;90953;-75
2022/06/27 09:55:44;;;;;;;1.40;1.23;;;;;;;;;;5023217;28;89530;-75
2022/06/27 09:58:23;;;;;;;1.93;0.90;;;;;;;;;;5023097;28;88429;-75
2022/06/27 10:00:53;;;;;;;1.20;1.00;;;;;;;;;;5022930;28;88437;-75
2022/06/27 10:03:31;;;;;;;3.60;1.30;;;;;;;;;;5022281;28;89755;-75
2022/06/27 10:06:11;;;;;;;3.33;1.10;;;;;;;;;;5022683;28;88835;-75
2022/06/27 10:08:46;;;;;;;1.17;0.80;;;;;;;;;;5022697;28;88392;-75
2022/06/27 10:11:25;;;;;;;0.60;0.60;;;;;;;;;;5021319;28;88660;-75
2022/06/27 10:14:20;;;;;;;1.80;0.80;;;;;;;;;;5022092;28;89519;-75
2022/06/27 10:17:03;;;;;;;1.27;0.80;;;;;;;;;;5022054;28;90680;-75
2022/06/27 10:19:31;;;;;;;0.50;0.50;;;;;;;;;;5021458;28;88456;-76
2022/06/27 10:22:01;;;;;;;4.83;1.10;;;;;;;;;;5022385;28;88369;-75
2022/06/27 10:24:36;;;;;;;2.47;0.83;;;;;;;;;;5021998;28;92292;-75
2022/06/27 10:27:08;;;;;;;1.20;0.70;;;;;;;;;;5022321;28;89484;-75
2022/06/27 10:29:50;;;;;;;1.30;1.07;;;;;;;;;;5021866;28;88633;-75
2022/06/27 10:32:46;;;;;;;0.80;0.80;;;;;;;;;;5022512;28;88632;-76
2022/06/27 10:35:29;;;;;;;1.03;0.90;;;;;;;;;;5022319;28;90563;-75
2022/06/27 10:38:01;;;;;;;1.50;1.13;;;;;;;;;;5022629;28;88744;-75
2022/06/27 10:40:55;;;;;;;1.30;0.93;;;;;;;;;;5022208;27;88258;-75
2022/06/27 10:43:45;;;;;;;1.27;1.00;;;;;;;;;;5009195;28;88394;-75
2022/06/27 10:46:38;;;;;;;1.00;0.87;;;;;;;;;;5022431;28;89890;-75
2022/06/27 10:49:14;;;;;;;0.60;0.60;;;;;;;;;;5021887;28;88896;-75
2022/06/27 10:51:46;;;;;;;1.80;1.50;;;;;;;;;;5021274;28;88283;-76
2022/06/27 10:54:20;;;;;;;3.20;1.40;;;;;;;;;;5020131;28;88666;-76
2022/06/27 10:56:51;;;;;;;0.77;0.70;;;;;;;;;;5021136;28;90809;-75
2022/06/27 11:00:04;;;;;;;0.80;0.77;;;;;;;;;;5021331;28;90074;-75
2022/06/27 11:02:33;;;;;;;1.33;0.90;;;;;;;;;;5021890;28;88369;-75
2022/06/27 11:05:14;;;;;;;0.90;0.70;;;;;;;;;;5021996;28;88449;-75
2022/06/27 11:07:44;;;;;;;2.03;0.93;;;;;;;;;;5020822;28;89729;-76
2022/06/27 11:10:22;;;;;;;0.97;0.90;;;;;;;;;;5021128;28;90406;-75
2022/06/27 11:12:51;;;;;;;0.60;0.60;;;;;;;;;;5021224;28;88563;-75
2022/06/27 11:15:20;;;;;;;1.13;0.80;;;;;;;;;;5021530;28;88348;-75
2022/06/27 11:17:55;;;;;;;1.70;0.73;;;;;;;;;;5021596;28;90931;-75
2022/06/27 11:20:25;;;;;;;2.10;0.87;;;;;;;;;;5021348;28;90060;-75
2022/06/27 11:23:08;;;;;;;0.63;0.63;;;;;;;;;;5020940;28;88357;-75
2022/06/27 11:25:41;;;;;;;3.13;0.70;;;;;;;;;;5021057;28;88516;-75
2022/06/27 11:34:04;;;;;;;0.70;0.70;;;;;;;;;;5021238;28;88596;-75
2022/06/27 11:36:47;;;;;;;0.90;0.70;;;;;;;;;;5021427;28;88320;-75
2022/06/27 11:39:23;;;;;;;1.87;0.87;;;;;;;;;;5021445;28;90653;-76
2022/06/27 11:42:13;;;;;;;0.97;0.90;;;;;;;;;;5021275;28;89298;-75
2022/06/27 11:45:01;;;;;;;1.57;1.00;;;;;;;;;;5021759;28;88397;-76
2022/06/27 11:47:30;;;;;;;1.40;0.87;;;;;;;;;;5023632;28;88632;-76
2022/06/27 11:50:12;;;;;;;4.80;1.20;;;;;;;;;;5022909;28;90050;-76
2022/06/27 11:53:02;;;;;;;0.83;0.80;;;;;;;;;;5021707;28;91057;-75
2022/06/27 11:55:32;;;;;;;2.97;1.20;;;;;;;;;;5021840;28;88419;-76
2022/06/27 11:58:04;;;;;;;1.10;0.93;;;;;;;;;;5022216;28;88444;-75
2022/06/27 12:03:22;;;;;;;1.00;0.90;;;;;;;;;;5020574;28;89134;-76
2022/06/27 12:05:50;;;;;;;1.67;1.00;;;;;;;;;;5021085;28;88305;-75
2022/06/27 12:08:19;;;;;;;0.87;0.70;;;;;;;;;;5021196;28;88385;-76
2022/06/27 12:13:42;;;;;;;2.73;1.10;;;;;;;;;;5013739;28;89970;-75
2022/06/27 12:16:18;;;;;;;1.03;0.73;;;;;;;;;;5020775;28;88529;-76
2022/06/27 12:18:51;;;;;;;4.77;1.10;;;;;;;;;;5019487;28;88290;-76
2022/06/27 12:21:44;;;;;;;1.10;0.60;;;;;;;;;;5020537;28;90635;-76
2022/06/27 12:24:31;;;;;;;0.87;0.50;;;;;;;;;;4977896;28;88695;-76
2022/06/27 12:27:03;;;;;;;1.33;0.77;;;;;;;;;;4978741;28;88491;-75
2022/06/27 12:29:33;;;;;;;2.60;1.00;;;;;;;;;;4978924;28;88532;-75
2022/06/27 12:32:17;;;;;;;0.87;0.87;;;;;;;;;;4978397;28;91617;-77
2022/06/27 12:34:49;;;;;;;1.00;0.67;;;;;;;;;;4978166;28;89927;-76
2022/06/27 12:37:26;;;;;;;0.73;0.73;;;;;;;;;;4979219;28;88632;-76
2022/06/27 12:39:58;;;;;;;0.57;0.40;;;;;;;;;;4978472;28;88712;-76
2022/06/27 12:42:29;;;;;;;0.87;0.87;;;;;;;;;;4995092;28;90511;-76
2022/06/27 12:45:12;;;;;;;0.50;0.50;;;;;;;;;;5019797;28;89835;-76
2022/06/27 12:47:49;;;;;;;2.37;0.80;;;;;;;;;;5020522;28;88489;-76
2022/06/27 12:50:32;;;;;;;0.60;0.60;;;;;;;;;;4993230;28;88559;-76
2022/06/27 12:53:10;;;;;;;2.53;0.80;;;;;;;;;;4997933;28;89581;-75
2022/06/27 12:55:39;;;;;;;3.40;0.80;;;;;;;;;;4998090;28;88854;-76
2022/06/27 12:58:25;;;;;;;1.30;0.60;;;;;;;;;;4998293;28;88310;-76
2022/06/27 13:00:58;;;;;;;4.63;1.10;;;;;;;;;;4998136;28;88624;-76
2022/06/27 13:06:35;;;;;;;1.40;0.60;;;;;;;;;;4997467;28;91215;-77
2022/06/27 13:09:06;;;;;;;0.93;0.67;;;;;;;;;;4998060;28;88535;-76
2022/06/27 13:11:46;;;;;;;1.50;0.60;;;;;;;;;;4997941;28;88801;-76
2022/06/27 13:14:16;;;;;;;3.47;1.03;;;;;;;;;;4997721;28;90803;-77
2022/06/27 13:16:44;;;;;;;0.60;0.60;;;;;;;;;;5000565;28;89197;-76
2022/06/27 13:19:28;;;;;;;1.47;0.40;;;;;;;;;;5001416;28;88484;-77
2022/06/27 13:24:50;;;;;;;1.03;0.77;;;;;;;;;;5034254;28;89681;-77
2022/06/27 13:27:20;;;;;;;3.60;0.77;;;;;;;;;;5022925;28;88807;-76
2022/06/27 13:32:33;;;;;;;0.90;0.60;;;;;;;;;;5024016;28;88647;-76
2022/06/27 13:35:16;;;;;;;0.87;0.60;;;;;;;;;;5000269;28;88795;-76
2022/06/27 13:37:45;;;;;;;3.57;0.80;;;;;;;;;;5001120;28;92368;-76
2022/06/27 13:43:01;;;;;;;2.87;0.60;;;;;;;;;;5000330;28;88425;-76
2022/06/27 13:45:33;;;;;;;2.10;0.80;;;;;;;;;;4994596;28;90653;-76
2022/06/27 13:48:06;;;;;;;1.67;0.70;;;;;;;;;;4981403;28;90146;-76
2022/06/27 13:50:53;;;;;;;0.60;0.47;;;;;;;;;;4981675;28;88523;-76
2022/06/27 13:53:23;;;;;;;2.60;0.90;;;;;;;;;;4980957;28;88498;-76
2022/06/27 13:55:54;;;;;;;1.47;0.60;;;;;;;;;;4981077;28;92691;-76
2022/06/27 13:58:22;;;;;;;2.53;0.70;;;;;;;;;;4981155;28;88960;-77
2022/06/27 14:00:54;;;;;;;0.90;0.50;;;;;;;;;;4980783;28;88578;-77
2022/06/27 14:03:27;;;;;;;1.07;0.50;;;;;;;;;;4981227;28;88475;-77
2022/06/27 14:08:57;;;;;;;3.87;0.63;;;;;;;;;;4980957;28;90242;-77
2022/06/27 14:11:45;;;;;;;0.97;0.40;;;;;;;;;;4988820;28;88537;-77
2022/06/27 14:14:15;;;;;;;0.97;0.57;;;;;;;;;;5021621;28;88552;-77
2022/06/27 14:16:47;;;;;;;2.33;0.50;;;;;;;;;;5022506;28;90220;-76
2022/06/27 14:19:17;;;;;;;0.40;0.40;;;;;;;;;;5022152;28;89231;-77
2022/06/27 14:21:50;;;;;;;0.87;0.40;;;;;;;;;;5023277;28;88421;-77
2022/06/27 14:24:25;;;;;;;1.33;0.70;;;;;;;;;;5022630;27;88739;-77
2022/06/27 14:26:54;;;;;;;3.50;0.73;;;;;;;;;;5021600;28;90744;-77
2022/06/27 14:29:36;;;;;;;0.60;0.60;;;;;;;;;;5022695;28;89948;-78
2022/06/27 14:32:06;;;;;;;0.50;0.30;;;;;;;;;;5023295;28;88584;-78
2022/06/27 14:34:35;;;;;;;1.13;0.60;;;;;;;;;;5022903;28;88376;-77
2022/06/27 14:37:07;;;;;;;0.30;0.30;;;;;;;;;;5023082;28;89285;-77
2022/06/27 14:39:42;;;;;;;1.07;0.57;;;;;;;;;;5023555;28;91196;-77
2022/06/27 14:42:18;;;;;;;1.50;0.40;;;;;;;;;;5024120;28;88385;-77
2022/06/27 14:44:53;;;;;;;0.50;0.50;;;;;;;;;;5023924;28;88440;-77
2022/06/27 14:47:22;;;;;;;0.40;0.40;;;;;;;;;;5023004;28;90552;-77
2022/06/27 14:49:57;;;;;;;0.57;0.50;;;;;;;;;;5021456;28;88918;-76
2022/06/27 14:55:46;;;;;;;0.83;0.60;;;;;;;;;;4976592;28;88662;-77
2022/06/27 14:58:24;;;;;;;0.63;0.50;;;;;;;;;;4979831;28;92643;-77
2022/06/27 15:00:59;;;;;;;1.13;0.30;;;;;;;;;;4979594;28;88930;-77
2022/06/27 15:03:47;;;;;;;1.63;0.47;;;;;;;;;;4979990;28;88491;-77
2022/06/27 15:06:24;;;;;;;1.53;0.77;;;;;;;;;;4980537;28;88621;-77
2022/06/27 15:08:59;;;;;;;0.63;0.43;;;;;;;;;;4978908;28;90166;-77
2022/06/27 15:11:40;;;;;;;1.03;0.40;;;;;;;;;;4979172;28;89185;-78
2022/06/27 15:14:11;;;;;;;1.00;0.50;;;;;;;;;;4979425;28;88612;-77
2022/06/27 15:16:56;;;;;;;0.70;0.50;;;;;;;;;;4980373;28;88590;-77
2022/06/27 15:19:25;;;;;;;0.97;0.50;;;;;;;;;;4979765;28;89252;-77
2022/06/27 15:21:58;;;;;;;0.50;0.50;;;;;;;;;;4979111;28;88743;-77
2022/06/27 15:24:30;;;;;;;2.50;0.63;;;;;;;;;;4980071;28;88503;-77
2022/06/27 15:27:02;;;;;;;1.17;0.47;;;;;;;;;;4980011;28;88518;-77
2022/06/27 15:29:56;;;;;;;1.27;0.60;;;;;;;;;;4979929;28;91212;-77
2022/06/27 15:32:33;;;;;;;0.40;0.40;;;;;;;;;;4994713;28;89042;-77
2022/06/27 15:35:06;;;;;;;0.40;0.40;;;;;;;;;;4998612;28;88467;-78
2022/06/27 15:37:39;;;;;;;1.30;0.37;;;;;;;;;;4996729;28;88619;-74
2022/06/27 15:40:10;;;;;;;0.40;0.40;;;;;;;;;;4999467;28;90671;-74
2022/06/27 15:42:40;;;;;;;1.60;0.80;;;;;;;;;;4985990;28;90896;-73
2022/06/27 15:45:18;;;;;;;0.57;0.30;;;;;;;;;;5021205;28;88352;-72
2022/06/27 15:48:22;;;;;;;0.50;0.50;;;;;;;;;;5019725;27;88770;-72
2022/06/27 15:51:13;;;;;;;1.57;0.40;;;;;;;;;;5019580;28;91837;-72
2022/06/27 15:53:43;;;;;;;1.70;0.80;;;;;;;;;;5028478;28;89150;-72
2022/06/27 15:56:14;;;;;;;2.03;0.93;;;;;;;;;;5019615;28;88251;-71
2022/06/27 15:58:47;;;;;;;2.97;1.57;;;;;;;;;;5020174;28;88683;-72
2022/06/27 16:01:20;;;;;;;3.03;1.70;;;;;;;;;;5021851;28;88681;-73
2022/06/27 16:03:52;;;;;;;1.80;1.17;;;;;;;;;;5023839;28;89830;-73
2022/06/27 16:06:22;;;;;;;1.60;1.43;;;;;;;;;;5020108;28;88429;-72
2022/06/27 16:08:58;;;;;;;3.10;1.67;;;;;;;;;;5021633;28;88658;-72
2022/06/27 16:11:30;;;;;;;3.83;1.43;;;;;;;;;;5016710;28;89777;-73
2022/06/27 16:14:08;;;;;;;1.80;1.50;;;;;;;;;;5023279;27;90236;-73
